createdAt,value
2018-06-07T00:04:25.185Z,17.7
2018-06-07T00:10:20.140Z,17.79
2018-06-07T00:16:15.198Z,16.39
2018-06-07T00:22:10.127Z,18.82
2018-06-07T00:28:05.139Z,17.43
2018-06-07T00:34:00.131Z,20.48
2018-06-07T00:39:55.182Z,20.44
2018-06-07T00:45:50.181Z,18.37
2018-06-07T00:51:45.175Z,15
2018-06-07T00:57:40.211Z,21.09
2018-06-07T01:03:35.155Z,29.78
2018-06-07T01:09:30.173Z,69.26
2018-06-07T01:15:25.195Z,26.74
2018-06-07T01:21:20.147Z,22.89
2018-06-07T01:27:15.210Z,21.99
2018-06-07T01:33:10.165Z,23.36
2018-06-07T01:39:05.270Z,18.61
2018-06-07T01:45:00.283Z,19.32
2018-06-07T01:50:55.190Z,16.68
2018-06-07T01:56:50.199Z,19.04
2018-06-07T02:02:45.181Z,18.21
2018-06-07T02:08:40.200Z,17
2018-06-07T02:14:35.192Z,17.23
2018-06-07T02:20:30.177Z,16.31
2018-06-07T02:26:25.250Z,18.48
2018-06-07T02:32:20.203Z,16.04
2018-06-07T02:38:15.206Z,16.89
2018-06-07T02:44:10.252Z,19.26
2018-06-07T02:50:05.218Z,16.25
2018-06-07T02:56:00.297Z,16.38
2018-06-07T03:01:55.209Z,17.91
2018-06-07T03:07:50.257Z,21.67
2018-06-07T03:13:45.201Z,27.87
2018-06-07T03:19:40.271Z,38.85
2018-06-07T03:25:35.262Z,22.69
2018-06-07T03:31:30.314Z,27.42
2018-06-07T03:37:25.326Z,25.69
2018-06-07T03:43:20.226Z,38.13
2018-06-07T03:49:15.378Z,23.07
2018-06-07T03:55:10.294Z,35.43
2018-06-07T04:01:05.253Z,38.37
2018-06-07T04:07:00.242Z,22.24
2018-06-07T04:12:55.274Z,26.66
2018-06-07T04:18:50.265Z,25.3
2018-06-07T04:24:45.274Z,27.48
2018-06-07T04:30:40.265Z,26
2018-06-07T04:36:35.306Z,25.64
2018-06-07T04:42:30.283Z,45.97
2018-06-07T04:48:25.299Z,43.55
2018-06-07T04:54:20.344Z,35.37
2018-06-07T05:00:15.337Z,23.17
2018-06-07T05:06:10.377Z,18.65
2018-06-07T05:12:05.321Z,17.63
2018-06-07T05:18:00.323Z,19.8
2018-06-07T05:23:55.329Z,23.03
2018-06-07T05:29:50.351Z,13.59
2018-06-07T05:35:45.321Z,17.27
2018-06-07T05:41:40.318Z,21.13
2018-06-07T05:47:35.349Z,16.63
2018-06-07T05:53:30.332Z,20.64
2018-06-07T05:59:25.376Z,16.15
2018-06-07T06:05:20.424Z,18.15
2018-06-07T06:11:15.375Z,15.49
2018-06-07T06:17:10.316Z,17.64
2018-06-07T06:23:05.322Z,19.91
2018-06-07T06:29:00.370Z,22.63
2018-06-07T06:34:55.353Z,19.6
2018-06-07T06:40:50.360Z,17.13
2018-06-07T06:46:45.358Z,24.47
2018-06-07T06:52:40.383Z,19.77
2018-06-07T06:58:35.403Z,20.4
2018-06-07T07:04:30.400Z,16.9
2018-06-07T07:10:25.427Z,16.43
2018-06-07T07:16:20.428Z,13.59
2018-06-07T07:22:15.372Z,14.98
2018-06-07T07:28:10.373Z,17.42
2018-06-07T07:34:05.386Z,16.15
2018-06-07T07:40:00.438Z,15.42
2018-06-07T07:45:55.400Z,12.46
2018-06-07T07:51:50.499Z,16.89
2018-06-07T07:57:45.398Z,15.53
2018-06-07T08:03:40.436Z,11.11
2018-06-07T08:09:35.459Z,10.54
2018-06-07T08:15:30.406Z,12.12
2018-06-07T08:21:25.419Z,17.75
2018-06-07T08:27:20.428Z,10.57
2018-06-07T08:33:15.438Z,9.1
2018-06-07T08:39:10.391Z,11.34
2018-06-07T08:45:05.437Z,7.27
2018-06-07T08:51:00.428Z,9.04
2018-06-07T08:56:55.428Z,8.76
2018-06-07T09:02:50.483Z,5.67
2018-06-07T09:08:45.505Z,8.69
2018-06-07T09:14:40.423Z,8.92
2018-06-07T09:20:35.446Z,7.76
2018-06-07T09:26:30.597Z,8.73
2018-06-07T09:32:25.442Z,6.75
2018-06-07T09:38:20.451Z,7.12
2018-06-07T09:44:15.439Z,8.45
2018-06-07T09:50:10.478Z,8.21
2018-06-07T09:56:05.431Z,8.26
2018-06-07T10:02:00.429Z,7.53
2018-06-07T10:13:50.462Z,7.07
2018-06-07T10:19:45.815Z,4.57
2018-06-07T10:25:40.463Z,7.88
2018-06-07T10:31:35.479Z,6.61
2018-06-07T10:37:30.528Z,4.67
2018-06-07T10:43:25.495Z,6.13
2018-06-07T10:49:20.505Z,5.77
2018-06-07T10:55:15.486Z,6.04
2018-06-07T11:01:10.463Z,9.99
2018-06-07T11:07:05.492Z,5.99
2018-06-07T11:13:00.546Z,8.3
2018-06-07T11:18:55.518Z,6.31
2018-06-07T11:24:50.733Z,5.19
2018-06-07T11:30:45.639Z,7.07
2018-06-07T11:36:40.586Z,7.52
2018-06-07T11:42:35.689Z,6.65
2018-06-07T11:48:30.543Z,4.23
2018-06-07T11:54:25.530Z,5.21
2018-06-07T12:00:20.966Z,5.8
2018-06-07T12:06:15.513Z,4.69
2018-06-07T12:12:10.569Z,3.89
2018-06-07T12:18:05.571Z,4.23
2018-06-07T12:24:00.562Z,3.8
2018-06-07T12:29:55.662Z,5.24
2018-06-07T12:35:59.332Z,5.06
2018-06-07T12:41:45.808Z,1.84
2018-06-07T12:47:40.552Z,13.35
2018-06-07T12:53:35.538Z,3.67
2018-06-07T12:59:30.564Z,2.14
2018-06-07T13:05:25.723Z,3.1
2018-06-07T13:11:20.549Z,3.61
2018-06-07T13:17:15.566Z,2.07
2018-06-07T13:23:10.690Z,2.28
2018-06-07T13:29:05.571Z,3.37
2018-06-07T13:35:00.613Z,2.53
2018-06-07T13:40:55.614Z,3.19
2018-06-07T13:46:50.570Z,3.9
2018-06-07T13:52:45.612Z,8.22
2018-06-07T13:58:40.576Z,9.57
2018-06-07T14:04:35.726Z,4.58
2018-06-07T14:10:30.643Z,6.62
2018-06-07T14:16:25.746Z,9.74
2018-06-07T14:22:21.788Z,7.75
2018-06-07T14:28:15.700Z,5.76
2018-06-07T14:34:10.674Z,7.77
2018-06-07T14:40:05.631Z,4.27
2018-06-07T14:46:01.648Z,4.37
2018-06-07T14:51:55.674Z,5.57
2018-06-07T14:57:50.645Z,5.73
2018-06-07T15:03:45.727Z,8.37
2018-06-07T15:09:40.727Z,7.63
2018-06-07T15:15:35.658Z,10.6
2018-06-07T15:21:30.723Z,6.84
2018-06-07T15:27:25.774Z,11.75
2018-06-07T15:33:20.751Z,11.37
2018-06-07T15:39:15.666Z,17.6
2018-06-07T15:45:11.073Z,15.28
2018-06-07T15:51:05.676Z,13.04
2018-06-07T15:57:00.764Z,13.31
2018-06-07T16:02:55.734Z,6.64
2018-06-07T16:08:50.685Z,11.21
2018-06-07T16:14:45.719Z,7.03
2018-06-07T16:20:41.027Z,12.15
2018-06-07T16:26:35.679Z,11.03
2018-06-07T16:32:30.719Z,8.7
2018-06-07T16:38:25.676Z,5.27
2018-06-07T16:44:20.694Z,10.09
2018-06-07T16:50:15.697Z,5.36
2018-06-07T16:56:10.692Z,6.07
2018-06-07T17:02:05.756Z,5.7
2018-06-07T17:08:00.718Z,4.43
2018-06-07T17:13:55.714Z,7.69
2018-06-07T17:19:50.826Z,5.53
2018-06-07T17:25:45.746Z,3.73
2018-06-07T17:31:40.729Z,11.7
2018-06-07T17:37:35.723Z,7.03
2018-06-07T17:43:30.801Z,8.63
2018-06-07T17:49:25.782Z,7.6
2018-06-07T17:55:20.747Z,8.98
2018-06-07T18:01:15.721Z,6.8
2018-06-07T18:07:10.750Z,6.44
2018-06-07T18:13:05.800Z,10.36
2018-06-07T18:19:00.858Z,7.87
2018-06-07T18:24:55.818Z,6.57
2018-06-07T18:30:50.793Z,8.88
2018-06-07T18:36:45.756Z,9.88
2018-06-07T18:42:40.780Z,10.42
2018-06-07T18:48:35.781Z,15.15
2018-06-07T18:54:30.788Z,8.03
2018-06-07T19:00:25.771Z,14.44
2018-06-07T19:06:20.880Z,10.3
2018-06-07T19:12:15.785Z,10.84
2018-06-07T19:19:15.288Z,12.6
2018-06-07T19:24:05.819Z,8.92
2018-06-07T19:30:00.866Z,7.65
2018-06-07T19:35:55.856Z,6.72
2018-06-07T19:41:50.866Z,13.13
2018-06-07T19:47:45.861Z,11.15
2018-06-07T19:53:40.777Z,8.95
2018-06-07T19:59:35.825Z,13.22
2018-06-07T20:05:30.794Z,9.19
2018-06-07T20:11:25.796Z,7.47
2018-06-07T20:17:20.824Z,14.82
2018-06-07T20:23:15.846Z,10.18
2018-06-07T20:29:10.830Z,11.19
2018-06-07T20:35:05.827Z,8.61
2018-06-07T20:41:00.873Z,8.11
2018-06-07T20:46:55.850Z,10.86
2018-06-07T20:52:50.890Z,15.46
2018-06-07T20:58:45.840Z,10.05
2018-06-07T21:04:40.849Z,8.82
2018-06-07T21:10:35.858Z,10.34
2018-06-07T21:16:30.898Z,10.61
2018-06-07T21:22:25.875Z,16.41
2018-06-07T21:28:20.889Z,9.94
2018-06-07T21:34:15.906Z,12.47
2018-06-07T21:40:10.836Z,10.94
2018-06-07T21:46:05.844Z,6.1
2018-06-07T21:52:00.954Z,11.62
2018-06-07T21:57:55.881Z,22.67
2018-06-07T22:03:50.867Z,14.02
2018-06-07T22:09:45.894Z,17.51
2018-06-07T22:15:40.873Z,24.18
2018-06-07T22:21:35.879Z,43.97
2018-06-07T22:27:30.929Z,60.13
2018-06-07T22:33:25.930Z,52.17
2018-06-07T22:39:20.962Z,34.2
2018-06-07T22:45:16.667Z,14.24
2018-06-07T22:51:10.891Z,11.83
2018-06-07T22:57:05.983Z,14.27
2018-06-07T23:03:00.949Z,8.91
2018-06-07T23:08:55.905Z,12.62
2018-06-07T23:14:51.012Z,11.4
2018-06-07T23:20:45.908Z,10.66
2018-06-07T23:26:40.953Z,16.23
2018-06-07T23:32:35.964Z,10.35
2018-06-07T23:38:30.955Z,14
2018-06-07T23:44:25.930Z,15.29
2018-06-07T23:50:20.959Z,11.36
2018-06-07T23:56:15.961Z,18.84
